Wetterdaten: Woche 02.08.10 - 08.08.10 (KW31)
Datum Zeit Temp. Innen Temp. Aussen UV X Diff Temp. Feuchte Inne Feuchte Auss Sonnenschein Luftdruck Regen ab 0,1 Wind Sonnenschein T Regendauer Windben
02.08.2010 00:00 24,3 C 17,6 C 0,0 UV-I 0,0 C 58 % 79 % 0 % 1018,3 hPa 0,0 l/m 0,0 km/h (0 Bft) 0,00 h 0,07 h 0,0 km/h (0 Bft)
02.08.2010 01:00 24,1 C 16,3 C 0,0 UV-I 0,0 C 58 % 84 % 0 % 1017,9 hPa 0,0 l/m 0,0 km/h (0 Bft) 0,00 h 0,13 h 0,0 km/h (0 Bft)
02.08.2010 02:00 23,9 C 15,3 C 0,0 UV-I 0,0 C 58 % 88 % 0 % 1018,2 hPa 0,0 l/m 0,0 km/h (0 Bft) 0,00 h 0,07 h 0,0 km/h (0 Bft)
02.08.2010 03:00 23,8 C 15,0 C 0,0 UV-I 0,0 C 58 % 90 % 0 % 1018,1 hPa 0,0 l/m 0,0 km/h (0 Bft) 0,00 h 0,07 h 0,0 km/h (0 Bft)
02.08.2010 04:00 23,6 C 14,9 C 0,0 UV-I 0,0 C 59 % 91 % 0 % 1017,8 hPa 0,0 l/m 0,0 km/h (0 Bft) 0,00 h 0,17 h 0,0 km/h (0 Bft)
02.08.2010 05:00 23,5 C 15,2 C 0,0 UV-I 0,0 C 59 % 91 % 0 % 1017,8 hPa 0,0 l/m 0,0 km/h (0 Bft) 0,00 h 0,10 h 0,0 km/h (0 Bft)
02.08.2010 06:00 23,5 C 15,7 C 0,1 UV-I 0,0 C 59 % 91 % 0 % 1018,0 hPa 0,0 l/m 0,0 km/h (0 Bft) 0,00 h 0,03 h 0,0 km/h (0 Bft)
02.08.2010 07:00 23,5 C 16,3 C 0,1 UV-I 0,0 C 59 % 88 % 0 % 1018,3 hPa 0,0 l/m 0,0 km/h (0 Bft) 0,00 h 0,30 h 0,1 km/h (0 Bft)
02.08.2010 08:00 23,5 C 16,4 C 0,2 UV-I 0,0 C 59 % 89 % 0 % 1018,7 hPa 1,2 l/m 0,3 km/h (0 Bft) 0,00 h 0,83 h 0,8 km/h (0 Bft)
02.08.2010 09:00 23,5 C 16,3 C 1,3 UV-I 0,5 C 60 % 91 % 14 % 1018,8 hPa 0,2 l/m 0,4 km/h (0 Bft) 0,00 h 0,10 h 0,2 km/h (0 Bft)
02.08.2010 10:00 23,8 C 17,2 C 2,0 UV-I 1,6 C 60 % 91 % 47 % 1019,0 hPa 0,0 l/m 0,8 km/h (0 Bft) 0,00 h 0,00 h 1,7 km/h (1 Bft)
02.08.2010 11:00 23,9 C 18,1 C 2,2 UV-I 1,6 C 59 % 88 % 45 % 1019,2 hPa 0,0 l/m 0,5 km/h (0 Bft) 0,00 h 0,00 h 0,9 km/h (0 Bft)
02.08.2010 12:00 24,1 C 19,1 C 4,0 UV-I 2,5 C 59 % 81 % 72 % 1019,0 hPa 0,0 l/m 1,9 km/h (1 Bft) 0,17 h 0,00 h 3,4 km/h (1 Bft)
02.08.2010 13:00 24,4 C 21,0 C 7,1 UV-I 5,4 C 58 % 73 % 100 % 1018,9 hPa 0,0 l/m 2,8 km/h (1 Bft) 0,93 h 0,00 h 2,5 km/h (1 Bft)
02.08.2010 14:00 25,1 C 21,7 C 6,9 UV-I 3,9 C 56 % 67 % 95 % 1019,0 hPa 0,0 l/m 6,3 km/h (2 Bft) 0,83 h 0,00 h 8,6 km/h (2 Bft)
02.08.2010 15:00 25,8 C 21,9 C 6,7 UV-I 3,8 C 54 % 65 % 88 % 1019,4 hPa 0,0 l/m 5,5 km/h (1 Bft) 0,47 h 0,00 h 7,4 km/h (2 Bft)
02.08.2010 16:00 26,0 C 22,0 C 7,0 UV-I 3,5 C 53 % 62 % 89 % 1019,2 hPa 0,0 l/m 6,1 km/h (2 Bft) 0,50 h 0,00 h 6,5 km/h (2 Bft)
02.08.2010 17:00 25,8 C 21,2 C 1,6 UV-I 0,5 C 53 % 65 % 15 % 1018,7 hPa 0,0 l/m 4,5 km/h (1 Bft) 0,00 h 0,00 h 5,9 km/h (2 Bft)
02.08.2010 18:00 25,1 C 19,7 C 1,2 UV-I 0,2 C 54 % 72 % 5 % 1018,4 hPa 0,0 l/m 6,6 km/h (2 Bft) 0,00 h 0,13 h 9,5 km/h (2 Bft)
02.08.2010 19:00 24,8 C 18,5 C 1,5 UV-I 0,3 C 55 % 78 % 8 % 1018,7 hPa 0,0 l/m 8,9 km/h (2 Bft) 0,00 h 0,00 h 9,9 km/h (2 Bft)
02.08.2010 20:00 24,4 C 17,5 C 0,7 UV-I 0,0 C 56 % 79 % 0 % 1018,6 hPa 0,0 l/m 2,1 km/h (1 Bft) 0,00 h 0,00 h 2,3 km/h (1 Bft)
02.08.2010 21:00 24,1 C 17,1 C 0,1 UV-I 0,0 C 57 % 83 % 0 % 1018,9 hPa 0,0 l/m 0,0 km/h (0 Bft) 0,00 h 0,03 h 0,1 km/h (0 Bft)
02.08.2010 22:00 23,8 C 16,8 C 0,0 UV-I 0,0 C 57 % 85 % 0 % 1018,8 hPa 0,0 l/m 0,0 km/h (0 Bft) 0,00 h 0,30 h 0,0 km/h (0 Bft)
02.08.2010 23:00 23,7 C 16,1 C 0,0 UV-I 0,0 C 58 % 87 % 0 % 1018,7 hPa 0,0 l/m 0,0 km/h (0 Bft) 0,00 h 0,03 h 0,0 km/h (0 Bft)
03.08.2010 00:00 23,5 C 15,5 C 0,0 UV-I 0,0 C 59 % 90 % 0 % 1018,8 hPa 0,0 l/m 0,0 km/h (0 Bft) 0,00 h 0,03 h 0,0 km/h (0 Bft)
03.08.2010 01:00 23,4 C 15,5 C 0,0 UV-I 0,0 C 59 % 92 % 0 % 1018,7 hPa 0,0 l/m 0,0 km/h (0 Bft) 0,00 h 0,07 h 0,0 km/h (0 Bft)
03.08.2010 02:00 23,2 C 15,6 C 0,1 UV-I 0,0 C 60 % 93 % 0 % 1018,6 hPa 0,0 l/m 0,1 km/h (0 Bft) 0,00 h 0,07 h 0,7 km/h (0 Bft)
03.08.2010 03:00 23,2 C 15,4 C 0,1 UV-I 0,0 C 60 % 93 % 0 % 1018,5 hPa 0,0 l/m 0,0 km/h (0 Bft) 0,00 h 0,03 h 0,0 km/h (0 Bft)
03.08.2010 04:00 23,1 C 15,0 C 0,1 UV-I 0,0 C 60 % 93 % 0 % 1018,2 hPa 0,0 l/m 0,1 km/h (0 Bft) 0,00 h 0,03 h 0,4 km/h (0 Bft)
03.08.2010 05:00 22,9 C 14,9 C 0,0 UV-I 0,0 C 61 % 93 % 0 % 1018,3 hPa 0,0 l/m 0,8 km/h (0 Bft) 0,00 h 0,03 h 1,6 km/h (1 Bft)
03.08.2010 06:00 22,8 C 14,5 C 0,0 UV-I 0,0 C 61 % 93 % 0 % 1018,4 hPa 0,0 l/m 0,4 km/h (0 Bft) 0,00 h 0,03 h 0,5 km/h (0 Bft)
03.08.2010 07:00 22,7 C 14,3 C 0,3 UV-I 0,0 C 60 % 94 % 0 % 1018,7 hPa 0,0 l/m 1,6 km/h (1 Bft) 0,00 h 0,03 h 3,1 km/h (1 Bft)
03.08.2010 08:00 22,8 C 15,0 C 0,8 UV-I 0,6 C 60 % 93 % 16 % 1019,0 hPa 0,0 l/m 3,1 km/h (1 Bft) 0,00 h 0,00 h 4,7 km/h (1 Bft)
03.08.2010 09:00 23,0 C 16,3 C 3,3 UV-I 2,5 C 60 % 90 % 67 % 1019,4 hPa 0,0 l/m 3,6 km/h (1 Bft) 0,27 h 0,00 h 4,7 km/h (1 Bft)
03.08.2010 10:00 23,2 C 17,4 C 4,2 UV-I 3,3 C 59 % 84 % 84 % 1019,5 hPa 0,0 l/m 4,4 km/h (1 Bft) 0,60 h 0,00 h 5,6 km/h (1 Bft)
03.08.2010 11:00 23,5 C 18,0 C 4,3 UV-I 3,1 C 58 % 81 % 86 % 1019,8 hPa 0,0 l/m 4,9 km/h (1 Bft) 0,47 h 0,00 h 6,8 km/h (2 Bft)
03.08.2010 12:00 23,9 C 19,4 C 5,1 UV-I 4,2 C 57 % 71 % 100 % 1019,9 hPa 0,0 l/m 6,6 km/h (2 Bft) 0,87 h 0,00 h 10,0 km/h (2 Bft)
03.08.2010 13:00 24,1 C 20,9 C 7,3 UV-I 5,3 C 55 % 64 % 100 % 1019,6 hPa 0,0 l/m 6,2 km/h (2 Bft) 0,87 h 0,00 h 8,2 km/h (2 Bft)
03.08.2010 14:00 24,8 C 21,8 C 8,5 UV-I 4,6 C 53 % 60 % 100 % 1019,8 hPa 0,0 l/m 6,2 km/h (2 Bft) 0,73 h 0,00 h 7,0 km/h (2 Bft)
03.08.2010 15:00 25,9 C 22,5 C 8,9 UV-I 4,2 C 49 % 56 % 89 % 1020,8 hPa 0,0 l/m 7,0 km/h (2 Bft) 0,67 h 0,00 h 7,7 km/h (2 Bft)
03.08.2010 16:00 26,4 C 22,6 C 8,9 UV-I 3,5 C 47 % 55 % 82 % 1020,3 hPa 0,0 l/m 6,0 km/h (2 Bft) 0,48 h 0,00 h 8,5 km/h (2 Bft)
03.08.2010 17:00 27,1 C 23,1 C 6,6 UV-I 3,7 C 45 % 51 % 87 % 1020,9 hPa 0,0 l/m 7,7 km/h (2 Bft) 0,70 h 0,00 h 9,6 km/h (2 Bft)
03.08.2010 18:00 26,5 C 22,5 C 3,1 UV-I 2,0 C 46 % 52 % 56 % 1019,7 hPa 0,0 l/m 6,0 km/h (2 Bft) 0,23 h 0,00 h 7,0 km/h (2 Bft)
03.08.2010 19:00 25,7 C 22,1 C 2,0 UV-I 0,0 C 47 % 51 % 1 % 1018,6 hPa 0,0 l/m 4,0 km/h (1 Bft) 0,00 h 0,00 h 5,4 km/h (1 Bft)
03.08.2010 20:00 25,0 C 20,9 C 0,7 UV-I 0,0 C 49 % 57 % 0 % 1018,3 hPa 0,0 l/m 0,4 km/h (0 Bft) 0,00 h 0,00 h 0,2 km/h (0 Bft)
03.08.2010 21:00 24,5 C 18,9 C 0,2 UV-I 0,0 C 51 % 66 % 0 % 1018,0 hPa 0,0 l/m 0,0 km/h (0 Bft) 0,00 h 0,00 h 0,0 km/h (0 Bft)
03.08.2010 22:00 24,1 C 17,3 C 0,0 UV-I 0,0 C 53 % 75 % 0 % 1017,9 hPa 0,0 l/m 0,1 km/h (0 Bft) 0,00 h 0,03 h 0,6 km/h (0 Bft)
03.08.2010 23:00 24,0 C 17,5 C 0,1 UV-I 0,0 C 53 % 77 % 0 % 1017,5 hPa 0,0 l/m 0,6 km/h (0 Bft) 0,00 h 0,00 h 0,6 km/h (0 Bft)
04.08.2010 00:00 23,9 C 17,3 C 0,1 UV-I 0,0 C 54 % 79 % 0 % 1017,1 hPa 0,0 l/m 0,6 km/h (0 Bft) 0,00 h 0,27 h 1,3 km/h (1 Bft)
04.08.2010 01:00 23,8 C 16,5 C 0,1 UV-I 0,0 C 55 % 84 % 0 % 1016,7 hPa 0,0 l/m 0,3 km/h (0 Bft) 0,00 h 0,03 h 0,6 km/h (0 Bft)
04.08.2010 02:00 23,7 C 15,8 C 0,1 UV-I 0,0 C 56 % 87 % 0 % 1016,0 hPa 0,0 l/m 0,0 km/h (0 Bft) 0,00 h 0,03 h 0,0 km/h (0 Bft)
04.08.2010 03:00 23,6 C 16,0 C 0,1 UV-I 0,0 C 56 % 87 % 0 % 1015,5 hPa 0,1 l/m 1,4 km/h (1 Bft) 0,00 h 0,33 h 2,8 km/h (1 Bft)
04.08.2010 04:00 23,5 C 15,7 C 0,1 UV-I 0,0 C 57 % 88 % 0 % 1014,6 hPa 0,0 l/m 0,7 km/h (0 Bft) 0,00 h 0,00 h 1,3 km/h (1 Bft)
04.08.2010 05:00 23,4 C 15,8 C 0,1 UV-I 0,0 C 56 % 85 % 0 % 1014,2 hPa 0,0 l/m 0,5 km/h (0 Bft) 0,00 h 0,00 h 0,9 km/h (0 Bft)
04.08.2010 06:00 23,1 C 15,6 C 0,2 UV-I 0,0 C 56 % 83 % 0 % 1014,0 hPa 0,0 l/m 0,4 km/h (0 Bft) 0,00 h 0,00 h 0,4 km/h (0 Bft)
04.08.2010 07:00 23,1 C 15,8 C 0,9 UV-I 0,0 C 56 % 82 % 0 % 1013,8 hPa 0,0 l/m 1,6 km/h (1 Bft) 0,00 h 0,00 h 2,0 km/h (1 Bft)
04.08.2010 08:00 23,3 C 16,5 C 1,3 UV-I 0,3 C 55 % 78 % 9 % 1013,8 hPa 0,0 l/m 3,8 km/h (1 Bft) 0,00 h 0,00 h 5,5 km/h (1 Bft)
04.08.2010 09:00 23,1 C 17,1 C 2,2 UV-I 0,8 C 53 % 75 % 22 % 1013,1 hPa 0,0 l/m 4,8 km/h (1 Bft) 0,00 h 0,00 h 7,3 km/h (2 Bft)
04.08.2010 10:00 23,0 C 18,5 C 4,6 UV-I 2,4 C 54 % 73 % 68 % 1012,5 hPa 0,0 l/m 4,7 km/h (1 Bft) 0,07 h 0,00 h 5,8 km/h (2 Bft)
04.08.2010 11:00 23,2 C 20,1 C 5,4 UV-I 3,1 C 54 % 67 % 86 % 1012,0 hPa 0,0 l/m 5,8 km/h (2 Bft) 0,47 h 0,00 h 8,3 km/h (2 Bft)
04.08.2010 12:00 23,4 C 20,7 C 3,6 UV-I 1,8 C 53 % 64 % 52 % 1011,5 hPa 0,0 l/m 6,8 km/h (2 Bft) 0,07 h 0,03 h 11,1 km/h (2 Bft)
04.08.2010 13:00 23,5 C 20,9 C 4,9 UV-I 2,1 C 53 % 64 % 61 % 1011,0 hPa 0,0 l/m 9,1 km/h (2 Bft) 0,10 h 0,10 h 12,3 km/h (3 Bft)
04.08.2010 14:00 23,5 C 19,1 C 3,9 UV-I 0,3 C 55 % 75 % 8 % 1011,0 hPa 0,1 l/m 9,0 km/h (2 Bft) 0,00 h 0,45 h 10,8 km/h (2 Bft)
04.08.2010 15:00 23,4 C 19,4 C 4,3 UV-I 1,7 C 56 % 74 % 48 % 1010,5 hPa 0,0 l/m 8,3 km/h (2 Bft) 0,10 h 0,00 h 9,7 km/h (2 Bft)
04.08.2010 16:00 24,1 C 20,8 C 6,9 UV-I 3,1 C 56 % 71 % 84 % 1010,8 hPa 0,0 l/m 8,6 km/h (2 Bft) 0,43 h 0,00 h 10,2 km/h (2 Bft)
04.08.2010 17:00 24,9 C 21,4 C 3,6 UV-I 2,0 C 53 % 66 % 57 % 1010,8 hPa 0,0 l/m 6,6 km/h (2 Bft) 0,33 h 0,03 h 7,3 km/h (2 Bft)
04.08.2010 18:00 24,3 C 19,3 C 0,9 UV-I 0,0 C 55 % 78 % 0 % 1009,8 hPa 0,7 l/m 2,7 km/h (1 Bft) 0,00 h 0,80 h 3,0 km/h (1 Bft)
04.08.2010 19:00 23,9 C 18,5 C 0,4 UV-I 0,0 C 58 % 84 % 0 % 1009,2 hPa 0,0 l/m 0,5 km/h (0 Bft) 0,00 h 0,07 h 0,4 km/h (0 Bft)
04.08.2010 20:00 23,6 C 18,4 C 0,2 UV-I 0,0 C 60 % 84 % 0 % 1008,9 hPa 0,0 l/m 0,2 km/h (0 Bft) 0,00 h 0,00 h 0,6 km/h (0 Bft)
04.08.2010 21:00 23,4 C 18,1 C 0,0 UV-I 0,0 C 60 % 86 % 0 % 1008,9 hPa 0,0 l/m 0,4 km/h (0 Bft) 0,00 h 0,00 h 0,7 km/h (0 Bft)
04.08.2010 22:00 23,2 C 17,6 C 0,0 UV-I 0,0 C 62 % 88 % 0 % 1008,7 hPa 0,0 l/m 0,7 km/h (0 Bft) 0,00 h 0,00 h 1,0 km/h (0 Bft)
04.08.2010 23:00 23,1 C 17,2 C 0,0 UV-I 0,0 C 62 % 89 % 0 % 1008,6 hPa 0,0 l/m 0,2 km/h (0 Bft) 0,00 h 0,00 h 0,5 km/h (0 Bft)
05.08.2010 00:00 23,0 C 16,8 C 0,0 UV-I 0,0 C 62 % 90 % 0 % 1008,2 hPa 0,0 l/m 0,9 km/h (0 Bft) 0,00 h 0,00 h 1,9 km/h (1 Bft)
05.08.2010 01:00 22,9 C 16,7 C 0,0 UV-I 0,0 C 63 % 91 % 0 % 1008,0 hPa 0,1 l/m 1,3 km/h (1 Bft) 0,00 h 0,43 h 2,1 km/h (1 Bft)
05.08.2010 02:00 22,6 C 15,9 C 0,0 UV-I 0,0 C 62 % 89 % 0 % 1008,0 hPa 0,0 l/m 3,2 km/h (1 Bft) 0,00 h 0,10 h 4,2 km/h (1 Bft)
05.08.2010 03:00 22,5 C 15,1 C 0,0 UV-I 0,0 C 61 % 90 % 0 % 1008,0 hPa 0,0 l/m 0,3 km/h (0 Bft) 0,00 h 0,03 h 0,2 km/h (0 Bft)
05.08.2010 04:00 22,3 C 14,7 C 0,0 UV-I 0,0 C 60 % 91 % 0 % 1008,2 hPa 0,0 l/m 0,4 km/h (0 Bft) 0,00 h 0,00 h 1,3 km/h (1 Bft)
05.08.2010 05:00 22,1 C 14,7 C 0,0 UV-I 0,0 C 61 % 92 % 0 % 1008,6 hPa 0,0 l/m 0,9 km/h (0 Bft) 0,00 h 0,00 h 1,8 km/h (1 Bft)
05.08.2010 06:00 22,1 C 14,7 C 0,0 UV-I 0,0 C 61 % 92 % 0 % 1009,2 hPa 0,0 l/m 1,2 km/h (1 Bft) 0,00 h 0,00 h 2,2 km/h (1 Bft)
05.08.2010 07:00 22,1 C 14,9 C 0,1 UV-I 0,0 C 60 % 91 % 0 % 1009,6 hPa 0,0 l/m 1,9 km/h (1 Bft) 0,00 h 0,00 h 3,1 km/h (1 Bft)
05.08.2010 08:00 22,1 C 15,2 C 1,0 UV-I 0,4 C 60 % 89 % 11 % 1010,1 hPa 0,0 l/m 2,1 km/h (1 Bft) 0,00 h 0,00 h 3,8 km/h (1 Bft)
05.08.2010 09:00 22,2 C 16,3 C 4,6 UV-I 3,1 C 59 % 83 % 80 % 1010,6 hPa 0,0 l/m 5,5 km/h (1 Bft) 0,57 h 0,00 h 6,1 km/h (2 Bft)
05.08.2010 10:00 22,3 C 17,3 C 6,3 UV-I 3,4 C 57 % 74 % 78 % 1011,5 hPa 0,0 l/m 3,8 km/h (1 Bft) 0,50 h 0,00 h 5,0 km/h (1 Bft)
05.08.2010 11:00 22,4 C 19,0 C 11,3 UV-I 6,3 C 56 % 67 % 100 % 1011,9 hPa 0,0 l/m 6,0 km/h (2 Bft) 0,87 h 0,00 h 7,7 km/h (2 Bft)
05.08.2010 12:00 22,8 C 19,9 C 5,2 UV-I 4,6 C 55 % 63 % 89 % 1011,9 hPa 0,0 l/m 6,4 km/h (2 Bft) 0,70 h 0,00 h 7,8 km/h (2 Bft)
05.08.2010 13:00 23,0 C 19,4 C 4,6 UV-I 2,2 C 54 % 65 % 62 % 1012,6 hPa 0,0 l/m 4,6 km/h (1 Bft) 0,23 h 0,00 h 5,9 km/h (2 Bft)
05.08.2010 14:00 23,6 C 19,6 C 4,6 UV-I 3,1 C 52 % 64 % 66 % 1013,6 hPa 0,2 l/m 5,5 km/h (1 Bft) 0,57 h 0,27 h 6,8 km/h (2 Bft)
05.08.2010 15:00 23,9 C 18,4 C 5,2 UV-I 2,5 C 53 % 73 % 64 % 1014,0 hPa 0,0 l/m 4,1 km/h (1 Bft) 0,53 h 0,00 h 5,1 km/h (1 Bft)
05.08.2010 16:00 24,5 C 20,2 C 6,4 UV-I 3,9 C 52 % 67 % 90 % 1014,6 hPa 0,0 l/m 6,6 km/h (2 Bft) 0,60 h 0,00 h 8,4 km/h (2 Bft)
05.08.2010 17:00 25,2 C 19,8 C 3,9 UV-I 1,8 C 49 % 65 % 48 % 1015,9 hPa 0,0 l/m 5,8 km/h (2 Bft) 0,20 h 0,00 h 5,7 km/h (1 Bft)
05.08.2010 18:00 24,5 C 18,7 C 2,0 UV-I 0,2 C 50 % 67 % 6 % 1015,0 hPa 0,0 l/m 4,5 km/h (1 Bft) 0,00 h 0,00 h 4,7 km/h (1 Bft)
05.08.2010 19:00 24,0 C 18,5 C 1,1 UV-I 0,2 C 51 % 69 % 6 % 1015,3 hPa 0,0 l/m 3,1 km/h (1 Bft) 0,00 h 0,00 h 3,4 km/h (1 Bft)
05.08.2010 20:00 23,4 C 18,0 C 0,1 UV-I 0,0 C 52 % 71 % 0 % 1015,8 hPa 0,0 l/m 2,3 km/h (1 Bft) 0,00 h 0,00 h 3,3 km/h (1 Bft)
05.08.2010 21:00 23,1 C 17,1 C 0,0 UV-I 0,0 C 53 % 74 % 0 % 1016,1 hPa 0,0 l/m 0,1 km/h (0 Bft) 0,00 h 0,00 h 0,2 km/h (0 Bft)
05.08.2010 22:00 22,9 C 16,7 C 0,0 UV-I 0,0 C 53 % 76 % 0 % 1016,6 hPa 0,0 l/m 0,2 km/h (0 Bft) 0,00 h 0,00 h 0,4 km/h (0 Bft)
05.08.2010 23:00 22,8 C 16,0 C 0,0 UV-I 0,0 C 54 % 77 % 0 % 1017,1 hPa 0,0 l/m 0,0 km/h (0 Bft) 0,00 h 0,00 h 0,2 km/h (0 Bft)
06.08.2010 00:00 22,6 C 14,8 C 0,0 UV-I 0,0 C 54 % 80 % 0 % 1017,3 hPa 0,0 l/m 0,0 km/h (0 Bft) 0,00 h 0,00 h 0,0 km/h (0 Bft)
06.08.2010 01:00 22,4 C 13,4 C 0,0 UV-I 0,0 C 54 % 84 % 0 % 1017,7 hPa 0,0 l/m 0,0 km/h (0 Bft) 0,00 h 0,00 h 0,0 km/h (0 Bft)
06.08.2010 02:00 22,1 C 12,5 C 0,0 UV-I 0,0 C 54 % 87 % 0 % 1017,7 hPa 0,0 l/m 0,0 km/h (0 Bft) 0,00 h 0,00 h 0,0 km/h (0 Bft)
06.08.2010 03:00 21,7 C 11,8 C 0,0 UV-I 0,0 C 54 % 89 % 0 % 1017,7 hPa 0,0 l/m 0,0 km/h (0 Bft) 0,00 h 0,00 h 0,0 km/h (0 Bft)
06.08.2010 04:00 21,3 C 11,4 C 0,0 UV-I 0,0 C 54 % 91 % 0 % 1018,0 hPa 0,0 l/m 0,0 km/h (0 Bft) 0,00 h 0,03 h 0,0 km/h (0 Bft)
06.08.2010 05:00 21,2 C 10,9 C 0,0 UV-I 0,0 C 55 % 91 % 0 % 1018,3 hPa 0,0 l/m 0,0 km/h (0 Bft) 0,00 h 0,00 h 0,0 km/h (0 Bft)
06.08.2010 06:00 21,0 C 10,8 C 0,0 UV-I 0,0 C 55 % 92 % 0 % 1018,7 hPa 0,0 l/m 0,0 km/h (0 Bft) 0,00 h 0,10 h 0,0 km/h (0 Bft)
06.08.2010 07:00 20,9 C 11,4 C 0,2 UV-I 0,0 C 56 % 94 % 0 % 1019,3 hPa 0,0 l/m 0,0 km/h (0 Bft) 0,00 h 0,03 h 0,0 km/h (0 Bft)
06.08.2010 08:00 21,1 C 13,4 C 0,9 UV-I 1,9 C 56 % 92 % 39 % 1019,6 hPa 0,0 l/m 0,2 km/h (0 Bft) 0,22 h 0,00 h 0,7 km/h (0 Bft)
06.08.2010 09:00 21,2 C 17,0 C 5,9 UV-I 6,8 C 56 % 79 % 100 % 1020,1 hPa 0,0 l/m 2,0 km/h (1 Bft) 0,82 h 0,00 h 4,3 km/h (1 Bft)
06.08.2010 10:00 21,3 C 19,1 C 10,9 UV-I 7,6 C 55 % 66 % 100 % 1020,3 hPa 0,0 l/m 2,5 km/h (1 Bft) 1,00 h 0,00 h 3,8 km/h (1 Bft)
06.08.2010 11:00 21,7 C 20,1 C 9,3 UV-I 7,0 C 54 % 60 % 100 % 1020,4 hPa 0,0 l/m 3,4 km/h (1 Bft) 0,93 h 0,00 h 3,9 km/h (1 Bft)
06.08.2010 12:00 22,2 C 20,5 C 5,1 UV-I 5,1 C 53 % 56 % 95 % 1020,5 hPa 0,0 l/m 3,8 km/h (1 Bft) 0,80 h 0,00 h 5,2 km/h (1 Bft)
06.08.2010 13:00 22,7 C 20,6 C 4,2 UV-I 2,9 C 52 % 55 % 76 % 1020,7 hPa 0,0 l/m 2,1 km/h (1 Bft) 0,47 h 0,00 h 1,8 km/h (1 Bft)
06.08.2010 14:00 23,4 C 21,7 C 7,5 UV-I 4,8 C 50 % 50 % 97 % 1021,7 hPa 0,0 l/m 3,5 km/h (1 Bft) 0,72 h 0,00 h 4,1 km/h (1 Bft)
06.08.2010 15:00 24,7 C 23,0 C 8,1 UV-I 5,2 C 45 % 45 % 100 % 1022,4 hPa 0,0 l/m 3,5 km/h (1 Bft) 1,00 h 0,00 h 4,1 km/h (1 Bft)
06.08.2010 16:00 26,0 C 23,4 C 7,3 UV-I 5,1 C 41 % 40 % 97 % 1023,2 hPa 0,0 l/m 3,5 km/h (1 Bft) 0,87 h 0,00 h 3,5 km/h (1 Bft)
06.08.2010 17:00 26,8 C 23,2 C 6,4 UV-I 4,6 C 40 % 43 % 96 % 1023,9 hPa 0,0 l/m 7,7 km/h (2 Bft) 0,90 h 0,00 h 9,5 km/h (2 Bft)
06.08.2010 18:00 26,1 C 22,0 C 2,5 UV-I 1,2 C 41 % 46 % 34 % 1022,2 hPa 0,0 l/m 5,3 km/h (1 Bft) 0,00 h 0,00 h 5,5 km/h (1 Bft)
06.08.2010 19:00 25,1 C 21,5 C 0,9 UV-I 0,0 C 43 % 49 % 1 % 1021,1 hPa 0,0 l/m 2,5 km/h (1 Bft) 0,00 h 0,00 h 2,3 km/h (1 Bft)
06.08.2010 20:00 24,3 C 20,3 C 0,0 UV-I 0,0 C 46 % 58 % 0 % 1020,9 hPa 0,0 l/m 0,3 km/h (0 Bft) 0,00 h 0,00 h 0,4 km/h (0 Bft)
06.08.2010 21:00 23,7 C 18,2 C 0,0 UV-I 0,0 C 49 % 66 % 0 % 1021,1 hPa 0,0 l/m 0,0 km/h (0 Bft) 0,00 h 0,00 h 0,0 km/h (0 Bft)
06.08.2010 22:00 23,2 C 16,0 C 0,0 UV-I 0,0 C 51 % 75 % 0 % 1021,2 hPa 0,0 l/m 0,0 km/h (0 Bft) 0,00 h 0,00 h 0,0 km/h (0 Bft)
06.08.2010 23:00 22,9 C 14,6 C 0,0 UV-I 0,0 C 52 % 81 % 0 % 1021,2 hPa 0,0 l/m 0,0 km/h (0 Bft) 0,00 h 0,00 h 0,0 km/h (0 Bft)
07.08.2010 00:00 22,7 C 14,1 C 0,0 UV-I 0,0 C 52 % 82 % 0 % 1021,3 hPa 0,0 l/m 0,3 km/h (0 Bft) 0,00 h 0,00 h 0,8 km/h (0 Bft)
07.08.2010 01:00 22,4 C 13,7 C 0,0 UV-I 0,0 C 51 % 81 % 0 % 1021,3 hPa 0,0 l/m 0,3 km/h (0 Bft) 0,00 h 0,00 h 0,5 km/h (0 Bft)
07.08.2010 02:00 22,2 C 13,2 C 0,0 UV-I 0,0 C 51 % 82 % 0 % 1020,9 hPa 0,0 l/m 0,0 km/h (0 Bft) 0,00 h 0,00 h 0,0 km/h (0 Bft)
07.08.2010 03:00 21,9 C 12,9 C 0,0 UV-I 0,0 C 51 % 82 % 0 % 1020,7 hPa 0,0 l/m 1,8 km/h (1 Bft) 0,00 h 0,00 h 3,4 km/h (1 Bft)
07.08.2010 04:00 21,5 C 12,6 C 0,0 UV-I 0,0 C 51 % 82 % 0 % 1020,6 hPa 0,0 l/m 3,1 km/h (1 Bft) 0,00 h 0,00 h 3,6 km/h (1 Bft)
07.08.2010 05:00 21,4 C 12,0 C 0,0 UV-I 0,0 C 51 % 84 % 0 % 1020,8 hPa 0,0 l/m 1,4 km/h (1 Bft) 0,00 h 0,00 h 2,7 km/h (1 Bft)
07.08.2010 06:00 21,1 C 11,6 C 0,1 UV-I 0,0 C 51 % 85 % 0 % 1020,6 hPa 0,0 l/m 4,1 km/h (1 Bft) 0,00 h 0,00 h 5,8 km/h (1 Bft)
07.08.2010 07:00 21,0 C 12,0 C 0,5 UV-I 0,0 C 51 % 85 % 0 % 1020,6 hPa 0,0 l/m 4,5 km/h (1 Bft) 0,00 h 0,07 h 5,2 km/h (1 Bft)
07.08.2010 08:00 20,9 C 13,6 C 1,8 UV-I 2,0 C 52 % 83 % 45 % 1020,7 hPa 0,0 l/m 7,0 km/h (2 Bft) 0,40 h 0,00 h 7,7 km/h (2 Bft)
07.08.2010 09:00 21,2 C 17,5 C 4,9 UV-I 5,1 C 53 % 73 % 100 % 1020,9 hPa 0,0 l/m 3,4 km/h (1 Bft) 0,97 h 0,00 h 4,1 km/h (1 Bft)
07.08.2010 10:00 21,8 C 20,6 C 6,2 UV-I 4,2 C 53 % 63 % 98 % 1021,0 hPa 0,0 l/m 4,9 km/h (1 Bft) 0,93 h 0,00 h 4,7 km/h (1 Bft)
07.08.2010 11:00 22,4 C 22,8 C 6,8 UV-I 4,8 C 51 % 52 % 100 % 1020,8 hPa 0,0 l/m 3,5 km/h (1 Bft) 0,87 h 0,00 h 3,7 km/h (1 Bft)
07.08.2010 12:00 22,9 C 24,4 C 5,6 UV-I 5,9 C 48 % 44 % 100 % 1020,6 hPa 0,0 l/m 4,7 km/h (1 Bft) 0,97 h 0,00 h 5,8 km/h (2 Bft)
07.08.2010 13:00 23,5 C 25,7 C 9,1 UV-I 5,9 C 46 % 42 % 100 % 1020,4 hPa 0,0 l/m 5,3 km/h (1 Bft) 0,90 h 0,00 h 7,2 km/h (2 Bft)
07.08.2010 14:00 24,7 C 27,0 C 10,4 UV-I 5,9 C 45 % 39 % 100 % 1021,2 hPa 0,0 l/m 5,0 km/h (1 Bft) 0,90 h 0,00 h 6,3 km/h (2 Bft)
07.08.2010 15:00 25,4 C 26,5 C 5,1 UV-I 3,0 C 43 % 41 % 85 % 1020,7 hPa 0,0 l/m 4,3 km/h (1 Bft) 0,57 h 0,00 h 5,6 km/h (1 Bft)
07.08.2010 16:00 25,2 C 26,0 C 3,5 UV-I 2,1 C 44 % 43 % 61 % 1019,8 hPa 0,0 l/m 2,3 km/h (1 Bft) 0,00 h 0,00 h 4,0 km/h (1 Bft)
07.08.2010 17:00 24,9 C 24,8 C 1,1 UV-I 0,3 C 46 % 49 % 8 % 1019,3 hPa 0,0 l/m 1,3 km/h (1 Bft) 0,00 h 0,07 h 2,4 km/h (1 Bft)
07.08.2010 18:00 24,6 C 24,0 C 0,6 UV-I 0,0 C 47 % 53 % 1 % 1019,3 hPa 0,0 l/m 1,3 km/h (1 Bft) 0,00 h 0,00 h 2,1 km/h (1 Bft)
07.08.2010 19:00 24,4 C 23,0 C 0,2 UV-I 0,0 C 49 % 58 % 0 % 1019,1 hPa 0,0 l/m 0,6 km/h (0 Bft) 0,00 h 0,00 h 0,8 km/h (0 Bft)
07.08.2010 20:00 24,1 C 22,5 C 0,0 UV-I 0,0 C 50 % 60 % 0 % 1018,7 hPa 0,0 l/m 0,2 km/h (0 Bft) 0,00 h 0,00 h 0,8 km/h (0 Bft)
07.08.2010 21:00 23,9 C 21,9 C 0,0 UV-I 0,0 C 52 % 64 % 0 % 1018,7 hPa 0,0 l/m 1,4 km/h (1 Bft) 0,00 h 0,00 h 2,8 km/h (1 Bft)
07.08.2010 22:00 23,7 C 20,0 C 0,0 UV-I 0,0 C 54 % 74 % 0 % 1019,6 hPa 0,5 l/m 4,1 km/h (1 Bft) 0,00 h 0,18 h 3,6 km/h (1 Bft)
07.08.2010 23:00 23,5 C 18,2 C 0,0 UV-I 0,0 C 56 % 84 % 0 % 1019,8 hPa 0,2 l/m 1,1 km/h (0 Bft) 0,00 h 0,50 h 1,3 km/h (1 Bft)
08.08.2010 00:00 23,4 C 17,7 C 0,0 UV-I 0,0 C 58 % 88 % 0 % 1019,4 hPa 0,9 l/m 0,1 km/h (0 Bft) 0,00 h 0,43 h 0,2 km/h (0 Bft)
08.08.2010 01:00 23,2 C 17,3 C 0,0 UV-I 0,0 C 59 % 90 % 0 % 1019,1 hPa 0,2 l/m 0,0 km/h (0 Bft) 0,00 h 0,33 h 0,0 km/h (0 Bft)
08.08.2010 02:00 23,2 C 17,2 C 0,0 UV-I 0,0 C 62 % 92 % 0 % 1019,0 hPa 1,8 l/m 0,0 km/h (0 Bft) 0,00 h 0,30 h 0,3 km/h (0 Bft)
08.08.2010 03:00 23,0 C 17,0 C 0,0 UV-I 0,0 C 62 % 93 % 0 % 1018,7 hPa 0,2 l/m 0,1 km/h (0 Bft) 0,00 h 0,30 h 0,9 km/h (0 Bft)
08.08.2010 04:00 23,0 C 16,9 C 0,0 UV-I 0,0 C 62 % 93 % 0 % 1018,2 hPa 0,0 l/m 0,0 km/h (0 Bft) 0,00 h 0,00 h 0,0 km/h (0 Bft)
08.08.2010 05:00 23,0 C 17,1 C 0,0 UV-I 0,0 C 62 % 94 % 0 % 1017,7 hPa 0,0 l/m 0,0 km/h (0 Bft) 0,00 h 0,00 h 0,0 km/h (0 Bft)
08.08.2010 06:00 23,0 C 17,0 C 0,0 UV-I 0,0 C 63 % 94 % 0 % 1017,5 hPa 3,5 l/m 0,1 km/h (0 Bft) 0,00 h 0,20 h 0,6 km/h (0 Bft)
08.08.2010 07:00 22,7 C 16,6 C 0,0 UV-I 0,0 C 64 % 94 % 0 % 1017,6 hPa 6,1 l/m 3,0 km/h (1 Bft) 0,00 h 0,93 h 4,4 km/h (1 Bft)
08.08.2010 08:00 22,6 C 16,3 C 0,3 UV-I 0,0 C 64 % 94 % 0 % 1017,9 hPa 0,0 l/m 1,3 km/h (1 Bft) 0,00 h 0,07 h 1,8 km/h (1 Bft)
08.08.2010 09:00 22,5 C 16,2 C 1,0 UV-I 0,2 C 64 % 94 % 5 % 1018,5 hPa 0,6 l/m 2,2 km/h (1 Bft) 0,00 h 0,77 h 3,0 km/h (1 Bft)
08.08.2010 10:00 22,6 C 16,5 C 2,1 UV-I 0,5 C 64 % 94 % 15 % 1018,7 hPa 0,4 l/m 2,0 km/h (1 Bft) 0,00 h 0,37 h 3,7 km/h (1 Bft)
08.08.2010 11:00 22,8 C 17,8 C 5,6 UV-I 4,4 C 64 % 91 % 92 % 1018,9 hPa 0,0 l/m 3,4 km/h (1 Bft) 0,77 h 0,00 h 4,3 km/h (1 Bft)
08.08.2010 12:00 23,1 C 19,5 C 4,4 UV-I 4,4 C 63 % 84 % 88 % 1019,1 hPa 0,0 l/m 5,7 km/h (1 Bft) 0,53 h 0,00 h 8,7 km/h (2 Bft)
08.08.2010 13:00 23,5 C 21,3 C 6,8 UV-I 5,7 C 61 % 75 % 100 % 1019,2 hPa 0,0 l/m 6,6 km/h (2 Bft) 0,87 h 0,00 h 9,4 km/h (2 Bft)
08.08.2010 14:00 24,1 C 20,1 C 2,4 UV-I 1,4 C 59 % 76 % 36 % 1019,5 hPa 3,2 l/m 6,3 km/h (2 Bft) 0,20 h 0,40 h 8,2 km/h (2 Bft)
08.08.2010 15:00 24,3 C 19,3 C 5,4 UV-I 2,9 C 60 % 85 % 68 % 1019,7 hPa 0,0 l/m 4,8 km/h (1 Bft) 0,47 h 0,00 h 7,5 km/h (2 Bft)
08.08.2010 16:00 24,4 C 19,2 C 2,0 UV-I 0,9 C 59 % 82 % 25 % 1020,1 hPa 0,0 l/m 5,4 km/h (1 Bft) 0,00 h 0,03 h 8,4 km/h (2 Bft)
08.08.2010 17:00 24,2 C 19,4 C 2,3 UV-I 1,5 C 59 % 81 % 41 % 1020,2 hPa 0,0 l/m 4,0 km/h (1 Bft) 0,13 h 0,00 h 6,6 km/h (2 Bft)
08.08.2010 18:00 24,1 C 19,3 C 0,7 UV-I 0,5 C 59 % 82 % 15 % 1019,9 hPa 0,0 l/m 2,1 km/h (1 Bft) 0,00 h 0,00 h 2,5 km/h (1 Bft)
08.08.2010 19:00 23,9 C 19,6 C 0,4 UV-I 0,6 C 59 % 79 % 16 % 1020,1 hPa 0,0 l/m 2,7 km/h (1 Bft) 0,00 h 0,00 h 3,5 km/h (1 Bft)
08.08.2010 20:00 23,6 C 18,6 C 0,0 UV-I 0,0 C 60 % 83 % 0 % 1020,2 hPa 0,0 l/m 0,8 km/h (0 Bft) 0,00 h 0,07 h 1,2 km/h (1 Bft)
08.08.2010 21:00 23,3 C 17,8 C 0,0 UV-I 0,0 C 61 % 86 % 0 % 1020,6 hPa 0,0 l/m 0,1 km/h (0 Bft) 0,00 h 0,00 h 0,2 km/h (0 Bft)
08.08.2010 22:00 23,1 C 17,3 C 0,0 UV-I 0,0 C 62 % 88 % 0 % 1020,9 hPa 0,0 l/m 0,1 km/h (0 Bft) 0,00 h 0,00 h 0,1 km/h (0 Bft)
08.08.2010 23:00 22,9 C 16,9 C 0,0 UV-I 0,0 C 62 % 87 % 0 % 1021,1 hPa 0,0 l/m 0,1 km/h (0 Bft) 0,00 h 0,00 h 0,2 km/h (0 Bft)
Min-Datum _ 07.08.10 06.08.10 02.08.10 02.08.10 06.08.10 06.08.10 02.08.10 05.08.10 - 02.08.10 - - 02.08.10
_ Min-Zeit 08:22 05:37 00:00 00:00 16:24 16:12 00:00 01:30 - 00:00 - - 00:00
Minimum _ 20,8 C 10,7 C 0,0 UV-I 0,0 C 40 % 38 % 0 % 1007,9 hPa - 0,0 km/h (0 Bft) - - 0,0 km/h (0 Bft)
Max-Datum _ 03.08.10 07.08.10 02.08.10 06.08.10 08.08.10 03.08.10 02.08.10 06.08.10 08.08.10 04.08.10 02.08.10 02.08.10 04.08.10
_ Max-Zeit 17:22 14:46 15:10 10:42 06:47 07:30 12:54 17:30 07:02 14:32 12:50 00:18 13:14
Maximum _ 27,4 C 27,5 C 14,3 UV-I 8,6 C 64 % 94 % 100 % 1024,4 hPa 6,1 l/m 13,3 km/h
O-SO (3 Bft)
0,03 h 0,03 h 38,0 km/h
O-NO (5 Bft)
Durchschnitt _ 23,4 C 17,9 C 2,2 UV-I 1,3 C 55 % 77 % 29 % 1017,4 hPa #19,9 l/m 2,5 km/h (1 Bft) #32:18 h #10:58 h 3,3 km/h (1 Bft)
© 2012 W. Hausmann